Time;durP1;ratioP1;P1;durP2;ratioP2;P2;SDS_P1;SDS_P2;PMS_P1;PMS_P2;Temp;Humidity;BMP_temperature;BMP_pressure;BME280_temperature;BME280_humidity;BME280_pressure;Samples;Min_cycle;Max_cycle;Signal;HPM_P1;HPM_P2
2023/10/09 00:01:15;;;;;;;0.73;0.43;;;13.20;93.30;;;;;;5051250;28;20467;-58
2023/10/09 00:03:42;;;;;;;5.70;1.03;;;13.20;93.40;;;;;;5051229;28;20435;-58
2023/10/09 00:06:08;;;;;;;6.53;0.97;;;13.20;93.60;;;;;;5051174;28;20781;-58
2023/10/09 00:08:37;;;;;;;0.90;0.90;;;13.10;94.20;;;;;;5051054;28;20421;-58
2023/10/09 00:13:49;;;;;;;2.17;1.10;;;13.20;94.50;;;;;;5051349;28;20409;-58
2023/10/09 00:16:22;;;;;;;1.90;1.27;;;13.20;94.20;;;;;;5051075;28;20457;-58
2023/10/09 00:18:48;;;;;;;5.33;2.67;;;13.20;94.20;;;;;;5051148;28;20884;-58
2023/10/09 00:21:20;;;;;;;1.53;1.43;;;13.30;94.10;;;;;;5051291;28;20484;-58
2023/10/09 00:23:53;;;;;;;9.80;0.97;;;13.30;94.10;;;;;;5051231;28;20258;-58
2023/10/09 00:26:22;;;;;;;0.50;0.50;;;13.30;94.00;;;;;;5051122;28;20397;-58
2023/10/09 00:28:51;;;;;;;3.13;0.53;;;13.30;94.00;;;;;;5033807;28;20401;-58
2023/10/09 00:31:26;;;;;;;2.10;1.23;;;13.30;94.10;;;;;;5050908;28;20802;-58
2023/10/09 00:33:52;;;;;;;6.97;1.30;;;13.20;94.10;;;;;;5052915;28;20443;-58
2023/10/09 00:36:27;;;;;;;4.40;1.60;;;13.20;94.50;;;;;;5054698;28;20408;-58
2023/10/09 00:38:53;;;;;;;3.20;1.20;;;13.30;94.70;;;;;;5054982;28;20510;-58
2023/10/09 00:41:20;;;;;;;1.47;1.37;;;13.30;94.60;;;;;;5054932;28;20526;-58
2023/10/09 00:43:49;;;;;;;5.33;2.07;;;13.30;94.50;;;;;;5055190;28;20427;-58
2023/10/09 00:48:51;;;;;;;9.47;0.73;;;13.30;94.40;;;;;;5054703;28;20400;-58
2023/10/09 00:51:21;;;;;;;2.60;1.47;;;13.30;94.60;;;;;;5054757;28;20418;-58
2023/10/09 00:53:53;;;;;;;1.00;0.57;;;13.20;94.80;;;;;;5054703;28;20434;-58
2023/10/09 00:59:08;;;;;;;1.00;0.90;;;13.20;95.90;;;;;;5054907;28;20419;-58
2023/10/09 01:01:35;;;;;;;3.60;1.70;;;13.20;95.90;;;;;;5054463;28;20550;-58
2023/10/09 01:04:06;;;;;;;3.47;0.80;;;13.20;95.70;;;;;;5054217;28;20521;-58
2023/10/09 01:06:34;;;;;;;1.03;0.73;;;13.20;95.40;;;;;;5054151;28;20407;-58
2023/10/09 01:09:10;;;;;;;0.90;0.70;;;13.20;95.50;;;;;;5054214;28;20997;-58
2023/10/09 01:11:47;;;;;;;0.80;0.80;;;13.20;95.40;;;;;;5054321;28;20468;-58
2023/10/09 01:14:13;;;;;;;4.13;2.73;;;13.20;95.60;;;;;;5054285;28;20455;-58
2023/10/09 01:16:42;;;;;;;7.17;0.97;;;13.20;95.70;;;;;;5053909;28;20416;-58
2023/10/09 01:19:13;;;;;;;2.50;1.40;;;13.30;95.90;;;;;;5054164;28;20412;-58
2023/10/09 01:21:39;;;;;;;1.33;1.07;;;13.40;95.90;;;;;;5054095;28;20458;-58
2023/10/09 01:24:08;;;;;;;1.83;1.40;;;13.30;95.90;;;;;;5054123;28;21029;-58
2023/10/09 01:26:44;;;;;;;4.80;0.90;;;13.30;96.10;;;;;;5053788;28;20436;-58
2023/10/09 01:29:21;;;;;;;0.53;0.53;;;13.30;96.20;;;;;;5054484;28;20873;-58
2023/10/09 01:34:34;;;;;;;0.50;0.50;;;13.40;96.50;;;;;;5053957;28;20428;-58
2023/10/09 01:37:05;;;;;;;2.43;1.80;;;13.40;96.50;;;;;;5053687;28;20435;-58
2023/10/09 01:39:30;;;;;;;1.43;1.33;;;13.30;96.50;;;;;;5053948;28;20443;-58
2023/10/09 01:42:05;;;;;;;1.80;1.47;;;13.30;96.70;;;;;;5053665;28;20451;-58
2023/10/09 01:44:35;;;;;;;0.70;0.70;;;13.30;96.70;;;;;;5053353;28;20188;-57
2023/10/09 01:47:07;;;;;;;1.60;1.30;;;13.20;96.60;;;;;;5053034;28;20536;-57
2023/10/09 01:49:43;;;;;;;1.93;1.27;;;13.20;96.70;;;;;;5053613;28;20415;-57
2023/10/09 01:52:12;;;;;;;14.13;1.40;;;13.20;96.80;;;;;;5051969;28;20817;-58
2023/10/09 01:54:39;;;;;;;1.90;1.00;;;13.30;96.90;;;;;;5051795;28;20527;-58
2023/10/09 01:57:12;;;;;;;1.90;1.30;;;13.30;96.90;;;;;;5053012;28;20428;-58
2023/10/09 01:59:45;;;;;;;14.33;2.93;;;13.30;97.00;;;;;;5053583;28;20952;-58
2023/10/09 02:02:26;;;;;;;1.50;0.80;;;13.30;96.90;;;;;;5035529;28;20543;-58
2023/10/09 02:04:54;;;;;;;1.33;0.90;;;13.30;97.00;;;;;;5053818;28;20456;-58
2023/10/09 02:07:22;;;;;;;22.27;1.57;;;13.30;97.10;;;;;;5053111;28;20397;-58
2023/10/09 02:09:48;;;;;;;1.60;1.50;;;13.30;97.10;;;;;;5053297;28;20416;-58
2023/10/09 02:12:14;;;;;;;0.87;0.87;;;13.20;97.20;;;;;;5053166;28;20491;-57
2023/10/09 02:14:41;;;;;;;1.87;1.37;;;13.20;97.30;;;;;;5053192;28;20206;-58
2023/10/09 02:17:09;;;;;;;7.80;2.63;;;13.30;97.40;;;;;;5052868;28;20165;-58
2023/10/09 02:19:35;;;;;;;2.57;1.93;;;13.30;97.40;;;;;;5053008;28;20500;-58
2023/10/09 02:22:19;;;;;;;0.70;0.70;;;13.30;97.40;;;;;;5053393;28;20605;-58
2023/10/09 02:27:39;;;;;;;11.00;1.10;;;13.20;97.30;;;;;;5052701;28;20922;-58
2023/10/09 02:30:08;;;;;;;1.30;0.90;;;13.20;97.40;;;;;;5052633;28;20443;-57
2023/10/09 02:32:33;;;;;;;0.50;0.50;;;13.20;97.70;;;;;;5053068;28;20416;-57
2023/10/09 02:35:10;;;;;;;2.20;1.43;;;13.20;97.80;;;;;;5051392;28;20429;-58
2023/10/09 02:37:37;;;;;;;0.80;0.80;;;13.30;97.60;;;;;;5052480;28;20207;-58
2023/10/09 02:40:08;;;;;;;2.47;2.27;;;13.30;97.40;;;;;;5052905;28;20446;-58
2023/10/09 02:42:34;;;;;;;2.63;1.70;;;13.20;97.70;;;;;;5052651;28;20458;-57
2023/10/09 02:45:00;;;;;;;9.03;1.13;;;13.20;97.90;;;;;;5052488;28;20427;-58
2023/10/09 02:47:31;;;;;;;0.70;0.70;;;13.20;97.70;;;;;;5052271;28;20422;-58
2023/10/09 02:50:08;;;;;;;3.43;0.97;;;13.20;97.70;;;;;;5052442;28;20407;-58
2023/10/09 02:52:40;;;;;;;0.40;0.40;;;13.10;97.90;;;;;;5052651;28;20415;-58
2023/10/09 02:55:23;;;;;;;0.90;0.80;;;13.00;98.20;;;;;;5052256;28;20443;-58
2023/10/09 02:57:52;;;;;;;2.20;0.60;;;13.10;98.20;;;;;;5051123;28;20405;-58
2023/10/09 03:00:29;;;;;;;8.63;2.10;;;13.10;98.00;;;;;;5052263;28;20478;-58
2023/10/09 03:02:58;;;;;;;3.40;1.43;;;13.10;97.90;;;;;;5052097;28;20902;-58
2023/10/09 03:05:27;;;;;;;1.33;0.87;;;13.20;97.90;;;;;;5090397;22;20482;-61
2023/10/09 03:07:53;;;;;;;1.17;1.00;;;13.10;97.90;;;;;;5091633;28;20849;-61
2023/10/09 03:10:21;;;;;;;0.70;0.70;;;13.10;97.90;;;;;;5092258;28;20911;-61
2023/10/09 03:12:51;;;;;;;1.30;1.20;;;13.10;98.00;;;;;;5092107;28;20820;-61
2023/10/09 03:15:18;;;;;;;1.90;1.40;;;13.20;98.00;;;;;;5092258;28;20425;-60
2023/10/09 03:17:44;;;;;;;16.27;2.40;;;13.20;97.80;;;;;;5091959;28;20414;-61
2023/10/09 03:20:13;;;;;;;8.23;1.43;;;13.10;97.80;;;;;;5092157;28;20405;-60
2023/10/09 03:22:40;;;;;;;1.10;0.80;;;13.10;97.80;;;;;;5091980;28;20454;-61
2023/10/09 03:25:11;;;;;;;4.43;3.90;;;13.10;98.10;;;;;;5091852;28;20426;-61
2023/10/09 03:27:45;;;;;;;3.27;2.73;;;13.10;98.20;;;;;;5091588;28;20463;-61
2023/10/09 03:30:25;;;;;;;1.40;1.30;;;13.10;98.20;;;;;;5090705;28;20504;-61
2023/10/09 03:32:52;;;;;;;5.60;1.53;;;13.00;98.20;;;;;;5092087;28;20470;-61
2023/10/09 03:35:27;;;;;;;1.90;1.70;;;13.10;98.40;;;;;;5092038;28;20449;-60
2023/10/09 03:38:00;;;;;;;4.53;2.30;;;13.10;98.30;;;;;;5091527;28;20426;-61
2023/10/09 03:40:26;;;;;;;1.33;1.27;;;13.10;98.20;;;;;;5091766;28;20429;-61
2023/10/09 03:42:52;;;;;;;1.53;0.80;;;13.00;98.10;;;;;;5091676;28;20506;-61
2023/10/09 03:45:28;;;;;;;0.97;0.87;;;13.00;98.00;;;;;;5091563;28;20443;-61
2023/10/09 03:48:01;;;;;;;0.60;0.60;;;13.00;97.90;;;;;;5091454;28;20875;-60
2023/10/09 03:50:30;;;;;;;1.17;0.77;;;13.00;97.90;;;;;;5091551;28;20426;-61
2023/10/09 03:52:55;;;;;;;1.00;0.60;;;13.00;98.00;;;;;;5091536;28;20442;-61
2023/10/09 03:55:27;;;;;;;1.97;0.77;;;13.00;97.90;;;;;;5091394;28;20461;-61
2023/10/09 03:57:53;;;;;;;1.23;0.63;;;13.00;98.00;;;;;;5091314;28;20175;-61
2023/10/09 04:00:26;;;;;;;0.87;0.87;;;13.00;97.90;;;;;;5091589;28;20498;-62
2023/10/09 04:02:52;;;;;;;5.30;1.90;;;13.00;98.00;;;;;;5091298;28;20283;-61
2023/10/09 04:05:18;;;;;;;1.33;0.80;;;13.00;97.90;;;;;;5091306;28;20553;-61
2023/10/09 04:07:43;;;;;;;0.93;0.93;;;12.90;97.90;;;;;;5091194;28;20277;-61
2023/10/09 04:10:32;;;;;;;2.27;1.40;;;12.90;97.90;;;;;;5095774;28;20548;-61
2023/10/09 04:12:58;;;;;;;1.53;0.93;;;12.90;98.00;;;;;;5095544;28;20535;-61
2023/10/09 04:15:24;;;;;;;1.70;0.77;;;12.90;98.10;;;;;;5095451;28;20426;-61
2023/10/09 04:17:51;;;;;;;0.83;0.83;;;13.00;98.00;;;;;;5095293;28;20455;-61
2023/10/09 04:22:59;;;;;;;1.27;0.70;;;12.90;97.50;;;;;;5095521;28;20464;-61
2023/10/09 04:25:26;;;;;;;6.33;0.87;;;12.90;97.50;;;;;;5095691;28;20480;-61
2023/10/09 04:30:42;;;;;;;3.93;2.07;;;12.90;97.40;;;;;;5095509;28;20399;-61
2023/10/09 04:33:28;;;;;;;1.67;0.60;;;12.90;97.30;;;;;;5095262;28;20414;-62
2023/10/09 04:41:51;;;;;;;0.70;0.70;;;13.00;96.90;;;;;;5095023;28;20464;-61
2023/10/09 04:44:22;;;;;;;0.87;0.70;;;13.00;96.70;;;;;;5095087;28;20425;-61
2023/10/09 04:49:49;;;;;;;1.97;0.93;;;13.00;96.90;;;;;;5095299;28;20428;-61
2023/10/09 04:52:51;;;;;;;1.23;1.13;;;12.90;97.20;;;;;;5095048;28;20452;-61
2023/10/09 05:03:06;;;;;;;1.43;0.90;;;12.80;97.50;;;;;;5094807;28;20466;-60
2023/10/09 05:08:19;;;;;;;1.23;1.13;;;12.80;97.40;;;;;;5094596;28;20914;-61
2023/10/09 05:16:15;;;;;;;1.10;0.87;;;12.70;97.60;;;;;;5094599;28;20938;-61
2023/10/09 05:18:45;;;;;;;0.93;0.93;;;12.80;97.70;;;;;;5094200;28;20412;-61
2023/10/09 05:24:09;;;;;;;1.90;0.80;;;12.70;97.70;;;;;;5094263;28;20502;-61
2023/10/09 05:26:50;;;;;;;1.43;1.10;;;12.70;97.60;;;;;;5093666;28;20430;-61
2023/10/09 05:37:33;;;;;;;0.90;0.90;;;12.70;97.30;;;;;;5093967;28;20446;-61
2023/10/09 06:14:04;;;;;;;0.40;0.40;;;13.00;97.70;;;;;;5093102;28;20416;-61
2023/10/09 06:19:28;;;;;;;0.70;0.60;;;13.30;97.40;;;;;;5048076;28;20410;-61
2023/10/09 06:24:33;;;;;;;2.10;1.80;;;13.50;97.10;;;;;;5092762;28;20171;-61
2023/10/09 06:34:51;;;;;;;1.03;1.03;;;14.00;96.90;;;;;;5092616;28;20973;-61
2023/10/09 06:45:06;;;;;;;2.83;1.27;;;14.70;96.60;;;;;;5092683;28;20788;-61
2023/10/09 06:47:41;;;;;;;0.63;0.63;;;14.80;96.20;;;;;;5092204;28;20407;-61
2023/10/09 06:52:57;;;;;;;1.13;1.03;;;15.00;95.90;;;;;;5092362;28;20399;-61
2023/10/09 06:55:35;;;;;;;5.40;3.20;;;15.10;96.00;;;;;;5092481;28;20422;-61
2023/10/09 06:58:01;;;;;;;4.10;1.10;;;15.40;96.40;;;;;;5092092;28;20448;-61
2023/10/09 07:03:14;;;;;;;2.50;1.60;;;17.80;94.90;;;;;;5092002;28;20556;-62
2023/10/09 07:06:00;;;;;;;2.27;1.30;;;19.50;92.10;;;;;;5091942;28;20476;-61
2023/10/09 07:08:31;;;;;;;4.80;1.70;;;21.00;87.60;;;;;;5090529;28;20669;-61
2023/10/09 07:11:20;;;;;;;2.70;2.50;;;22.30;82.20;;;;;;5091731;28;20398;-62
2023/10/09 07:13:54;;;;;;;2.63;1.33;;;23.30;72.60;;;;;;5091317;28;20415;-62
2023/10/09 07:16:38;;;;;;;1.50;1.40;;;24.10;68.00;;;;;;5091974;28;20401;-62
2023/10/09 07:19:09;;;;;;;7.30;1.60;;;24.70;64.00;;;;;;5092252;28;20403;-62
2023/10/09 07:21:38;;;;;;;1.70;1.40;;;25.30;60.90;;;;;;5092193;28;20455;-62
2023/10/09 07:24:17;;;;;;;3.10;0.87;;;25.30;60.90;;;;;;5092033;28;20955;-62
2023/10/09 07:26:53;;;;;;;4.10;1.20;;;24.90;61.10;;;;;;5091645;28;20501;-61
2023/10/09 07:29:22;;;;;;;1.57;1.47;;;24.30;61.70;;;;;;5091972;28;20386;-62
2023/10/09 07:31:57;;;;;;;1.90;1.80;;;23.50;63.20;;;;;;5091931;28;20527;-62
2023/10/09 07:34:52;;;;;;;2.60;1.70;;;22.80;65.50;;;;;;5091872;28;20406;-61
2023/10/09 07:37:35;;;;;;;7.13;2.40;;;22.20;67.90;;;;;;5091454;28;20374;-62
2023/10/09 07:40:07;;;;;;;4.47;1.67;;;21.80;70.10;;;;;;5091753;28;20491;-61
2023/10/09 07:42:43;;;;;;;2.30;1.37;;;21.50;70.20;;;;;;5091313;28;20847;-61
2023/10/09 07:48:04;;;;;;;14.43;1.77;;;21.40;72.30;;;;;;5091375;28;20407;-61
2023/10/09 07:50:40;;;;;;;2.17;1.30;;;21.90;71.60;;;;;;5091555;28;20415;-61
2023/10/09 07:53:17;;;;;;;7.03;1.77;;;22.50;71.60;;;;;;5091607;28;20408;-62
2023/10/09 07:55:58;;;;;;;5.47;2.97;;;23.50;69.60;;;;;;5091486;28;20404;-62
2023/10/09 07:58:28;;;;;;;9.33;1.80;;;24.60;67.20;;;;;;5091257;28;20429;-62
2023/10/09 08:01:16;;;;;;;2.17;1.30;;;25.60;64.20;;;;;;5091691;28;20920;-62
2023/10/09 08:04:10;;;;;;;2.27;1.07;;;26.80;61.20;;;;;;5091507;28;20407;-62
2023/10/09 08:06:44;;;;;;;4.50;1.80;;;28.60;57.60;;;;;;5090794;28;20446;-62
2023/10/09 08:20:11;;;;;;;4.30;0.90;;;35.70;41.40;;;;;;5091745;28;20417;-63
2023/10/09 08:22:43;;;;;;;2.27;1.00;;;36.60;39.50;;;;;;5091165;28;20462;-63
2023/10/09 08:25:27;;;;;;;2.53;1.57;;;37.00;37.90;;;;;;5091126;28;21097;-63
2023/10/09 08:31:02;;;;;;;2.53;1.47;;;37.70;36.90;;;;;;5091473;28;20406;-63
2023/10/09 08:33:40;;;;;;;3.10;1.30;;;38.30;36.90;;;;;;5091212;28;20710;-62
2023/10/09 08:36:07;;;;;;;9.23;2.40;;;38.90;34.80;;;;;;5090982;28;20501;-63
2023/10/09 08:38:34;;;;;;;3.00;1.80;;;39.10;34.00;;;;;;5090945;28;20416;-62
2023/10/09 08:41:17;;;;;;;3.10;1.40;;;39.00;33.90;;;;;;5091540;28;20410;-62
2023/10/09 08:43:53;;;;;;;10.23;2.13;;;38.60;33.00;;;;;;5091065;28;20770;-63
2023/10/09 08:46:28;;;;;;;4.33;1.03;;;37.60;33.80;;;;;;5090714;28;20418;-63
2023/10/09 08:48:59;;;;;;;0.83;0.83;;;36.40;34.40;;;;;;5090987;28;20399;-62
2023/10/09 08:51:29;;;;;;;3.50;2.17;;;35.50;35.70;;;;;;5091235;28;20410;-62
2023/10/09 08:53:55;;;;;;;4.90;1.57;;;34.40;37.20;;;;;;5091800;28;20410;-63
2023/10/09 08:56:22;;;;;;;4.00;1.77;;;33.10;37.70;;;;;;5094527;28;20418;-62
2023/10/09 08:58:59;;;;;;;2.50;1.00;;;32.00;39.70;;;;;;5094728;28;20489;-62
2023/10/09 09:01:25;;;;;;;7.40;2.00;;;31.20;41.90;;;;;;5094635;28;20398;-62
2023/10/09 09:03:55;;;;;;;6.97;2.00;;;30.50;44.20;;;;;;5094633;28;20460;-62
2023/10/09 09:06:23;;;;;;;2.43;1.57;;;29.60;43.40;;;;;;5118802;22;20537;-59
2023/10/09 09:08:55;;;;;;;5.73;1.67;;;29.10;45.30;;;;;;5054551;28;20401;-61
2023/10/09 09:11:24;;;;;;;6.37;1.80;;;29.00;46.80;;;;;;5054442;28;20393;-61
2023/10/09 09:14:02;;;;;;;3.23;1.87;;;29.00;47.40;;;;;;5054397;28;20447;-61
2023/10/09 09:16:31;;;;;;;2.07;1.20;;;29.10;45.80;;;;;;5054032;28;20453;-61
2023/10/09 09:19:17;;;;;;;2.53;0.97;;;29.20;44.70;;;;;;5054291;28;20397;-61
2023/10/09 09:21:49;;;;;;;8.07;2.30;;;29.30;44.90;;;;;;5054155;28;20455;-61
2023/10/09 09:26:46;;;;;;;5.30;1.37;;;29.60;43.90;;;;;;5053874;28;20428;-61
2023/10/09 09:29:19;;;;;;;2.90;1.73;;;29.50;44.00;;;;;;5054237;28;20774;-61
2023/10/09 09:31:57;;;;;;;2.00;1.10;;;29.30;46.50;;;;;;5054050;28;20178;-61
2023/10/09 09:34:28;;;;;;;2.80;1.53;;;28.90;45.20;;;;;;5053951;28;20499;-61
2023/10/09 09:36:56;;;;;;;5.57;1.63;;;28.70;45.50;;;;;;5053556;28;20462;-61
2023/10/09 09:39:29;;;;;;;2.67;1.10;;;28.60;45.70;;;;;;5053831;28;20956;-60
2023/10/09 09:42:13;;;;;;;8.43;2.37;;;28.60;45.90;;;;;;5053978;28;20473;-60
2023/10/09 09:44:45;;;;;;;9.07;1.77;;;28.60;47.50;;;;;;5053866;28;20415;-61
2023/10/09 09:47:26;;;;;;;8.33;1.47;;;28.70;48.10;;;;;;5053434;28;20409;-61
2023/10/09 09:50:00;;;;;;;2.90;1.50;;;28.70;46.70;;;;;;5053668;28;20413;-61
2023/10/09 09:52:29;;;;;;;1.13;1.03;;;28.40;46.40;;;;;;5053695;28;20413;-60
2023/10/09 09:54:54;;;;;;;4.73;1.10;;;28.40;47.10;;;;;;5053486;28;20440;-61
2023/10/09 09:57:28;;;;;;;2.23;1.20;;;28.20;46.70;;;;;;5053133;28;20880;-61
2023/10/09 09:59:56;;;;;;;1.77;1.67;;;28.00;47.80;;;;;;5053509;28;20182;-61
2023/10/09 10:02:28;;;;;;;4.40;1.13;;;27.50;48.20;;;;;;5053402;28;20455;-61
2023/10/09 10:04:56;;;;;;;1.70;1.60;;;27.10;49.30;;;;;;5053285;28;20400;-61
2023/10/09 10:07:25;;;;;;;9.63;1.50;;;26.90;49.10;;;;;;5052601;28;20413;-60
2023/10/09 10:09:54;;;;;;;2.33;1.93;;;26.60;49.70;;;;;;5053249;28;20420;-61
2023/10/09 10:13:01;;;;;;;3.23;1.60;;;26.40;49.80;;;;;;5053235;28;20405;-61
2023/10/09 10:15:56;;;;;;;7.20;1.20;;;26.10;50.80;;;;;;5053242;28;20907;-59
2023/10/09 10:18:23;;;;;;;2.93;1.73;;;26.00;51.40;;;;;;5052651;28;20897;-60
2023/10/09 10:23:52;;;;;;;4.20;1.70;;;26.00;52.20;;;;;;5052455;28;20442;-60
2023/10/09 10:26:26;;;;;;;1.53;1.43;;;26.00;52.40;;;;;;5052032;28;20913;-61
2023/10/09 10:29:23;;;;;;;2.90;1.30;;;25.90;52.40;;;;;;5052929;28;20220;-61
2023/10/09 10:32:08;;;;;;;2.60;1.33;;;25.90;54.50;;;;;;5052785;28;20500;-61
2023/10/09 10:34:58;;;;;;;8.43;1.73;;;25.80;52.50;;;;;;5052890;28;20415;-61
2023/10/09 10:37:44;;;;;;;1.53;1.10;;;25.70;51.90;;;;;;5052750;28;20751;-61
2023/10/09 10:40:37;;;;;;;2.30;1.43;;;25.80;53.00;;;;;;5052788;28;20391;-61
2023/10/09 10:43:09;;;;;;;3.83;1.17;;;25.80;51.90;;;;;;5052690;28;20812;-61
2023/10/09 10:45:43;;;;;;;2.93;1.83;;;25.80;51.80;;;;;;5052546;28;20440;-61
2023/10/09 10:48:22;;;;;;;2.97;1.30;;;25.70;51.90;;;;;;5052399;28;20885;-60
2023/10/09 10:50:57;;;;;;;0.80;0.80;;;25.40;52.60;;;;;;5052667;28;20520;-61
2023/10/09 10:53:27;;;;;;;6.30;1.30;;;25.30;53.50;;;;;;5052557;28;20415;-61
2023/10/09 11:01:50;;;;;;;3.33;1.67;;;25.50;53.80;;;;;;5052086;28;20411;-60
2023/10/09 11:15:37;;;;;;;3.10;1.33;;;25.40;53.90;;;;;;5052261;28;20463;-61
2023/10/09 11:18:19;;;;;;;2.00;1.10;;;25.30;53.30;;;;;;5051045;28;20496;-61
2023/10/09 11:29:23;;;;;;;2.40;1.47;;;24.80;57.80;;;;;;5052183;28;20891;-61
2023/10/09 11:32:04;;;;;;;5.53;3.00;;;24.70;62.20;;;;;;5052054;28;20379;-61
2023/10/09 11:34:31;;;;;;;6.00;1.50;;;24.50;62.80;;;;;;5051850;28;20779;-61
2023/10/09 11:37:12;;;;;;;1.80;1.57;;;24.60;63.20;;;;;;5051124;28;21082;-61
2023/10/09 11:39:50;;;;;;;3.70;1.70;;;24.30;66.10;;;;;;5052032;28;20435;-62
2023/10/09 11:42:35;;;;;;;2.40;1.70;;;24.10;68.20;;;;;;5050453;28;20513;-61
2023/10/09 11:45:21;;;;;;;4.17;1.73;;;24.20;63.90;;;;;;5050493;28;20474;-60
2023/10/09 11:48:00;;;;;;;4.43;2.03;;;24.30;67.40;;;;;;5050442;28;20900;-60
2023/10/09 11:50:51;;;;;;;5.00;1.43;;;24.10;67.30;;;;;;5051376;28;20417;-61
2023/10/09 11:55:52;;;;;;;5.37;1.93;;;23.80;69.70;;;;;;5051490;28;20407;-61
2023/10/09 11:58:24;;;;;;;1.70;1.60;;;23.80;70.30;;;;;;5051022;28;20417;-61
2023/10/09 12:01:03;;;;;;;1.57;1.40;;;23.90;69.80;;;;;;5051403;28;20416;-61
2023/10/09 12:03:30;;;;;;;11.13;1.90;;;23.90;69.80;;;;;;5051431;28;20431;-61
2023/10/09 12:06:13;;;;;;;2.93;1.50;;;24.00;65.20;;;;;;5051108;28;20932;-60
2023/10/09 12:08:42;;;;;;;2.97;1.33;;;23.80;61.90;;;;;;5051126;28;20394;-61
2023/10/09 12:11:11;;;;;;;1.03;1.00;;;23.70;62.50;;;;;;5051558;28;20807;-61
2023/10/09 12:13:38;;;;;;;2.57;1.07;;;23.60;62.40;;;;;;5051153;28;20414;-61
2023/10/09 12:16:08;;;;;;;7.50;1.20;;;23.40;60.20;;;;;;5050903;28;21029;-61
2023/10/09 12:18:34;;;;;;;1.10;1.00;;;23.60;69.10;;;;;;5051084;28;20493;-60
2023/10/09 12:21:04;;;;;;;2.30;1.20;;;23.60;61.70;;;;;;5051090;28;20435;-61
2023/10/09 12:23:35;;;;;;;2.10;0.93;;;23.70;59.80;;;;;;5051350;28;20442;-60
2023/10/09 12:26:04;;;;;;;4.73;1.50;;;23.80;59.00;;;;;;5051163;28;20550;-60
2023/10/09 12:28:32;;;;;;;6.27;1.40;;;23.80;59.50;;;;;;5051051;28;20789;-61
2023/10/09 12:31:01;;;;;;;3.30;2.07;;;23.90;59.20;;;;;;5054842;28;20417;-61
2023/10/09 12:33:27;;;;;;;4.83;1.50;;;24.20;57.80;;;;;;5055125;28;20862;-61
2023/10/09 12:36:00;;;;;;;3.90;1.40;;;24.40;57.40;;;;;;5055148;28;20783;-61
2023/10/09 12:38:32;;;;;;;3.93;1.40;;;24.70;59.40;;;;;;5055009;28;20415;-60
2023/10/09 12:41:07;;;;;;;1.53;1.43;;;24.80;62.50;;;;;;5055027;28;20391;-60
2023/10/09 12:43:37;;;;;;;1.27;0.80;;;24.70;62.00;;;;;;5054903;28;20473;-61
2023/10/09 12:46:07;;;;;;;3.10;1.10;;;24.50;57.00;;;;;;5054656;28;20411;-60
2023/10/09 12:48:33;;;;;;;3.20;1.23;;;24.60;60.00;;;;;;5054174;28;20379;-61
2023/10/09 12:51:05;;;;;;;2.30;1.00;;;24.70;59.90;;;;;;5054624;28;20384;-61
2023/10/09 12:53:32;;;;;;;3.17;2.97;;;24.80;55.60;;;;;;5054585;28;20466;-61
2023/10/09 12:55:58;;;;;;;1.40;1.10;;;24.80;59.10;;;;;;5054394;28;20486;-61
2023/10/09 12:58:26;;;;;;;1.67;1.17;;;24.80;56.50;;;;;;5054184;28;20886;-60
2023/10/09 13:00:52;;;;;;;1.93;1.27;;;24.90;58.50;;;;;;5054487;28;20208;-61
2023/10/09 13:03:19;;;;;;;3.90;1.83;;;24.90;65.40;;;;;;5053286;28;20533;-61
2023/10/09 13:05:53;;;;;;;2.67;2.03;;;24.70;57.80;;;;;;5053647;28;20582;-61
2023/10/09 13:08:24;;;;;;;4.87;0.87;;;24.60;58.20;;;;;;5054129;28;20735;-61
2023/10/09 13:10:58;;;;;;;2.10;1.33;;;24.60;63.90;;;;;;5053854;28;20383;-61
2023/10/09 13:13:40;;;;;;;9.07;1.70;;;24.50;69.20;;;;;;5054529;28;20371;-60
2023/10/09 13:16:22;;;;;;;2.70;0.87;;;24.20;72.30;;;;;;5054342;28;20428;-60
2023/10/09 13:18:52;;;;;;;5.20;1.87;;;24.20;68.30;;;;;;5054342;28;20395;-60
2023/10/09 13:21:34;;;;;;;5.47;1.37;;;24.20;63.00;;;;;;5054255;28;20902;-61
2023/10/09 13:24:01;;;;;;;7.40;1.50;;;24.30;62.40;;;;;;5054021;28;20427;-61
2023/10/09 13:26:30;;;;;;;1.80;1.00;;;24.30;63.50;;;;;;5053784;28;20417;-61
2023/10/09 13:28:58;;;;;;;3.37;1.63;;;24.50;64.50;;;;;;5054147;28;20417;-61
2023/10/09 13:31:31;;;;;;;6.23;2.53;;;24.50;68.70;;;;;;5054471;28;20922;-61
2023/10/09 13:33:59;;;;;;;1.00;1.00;;;24.30;72.50;;;;;;5053713;28;20444;-60
2023/10/09 13:36:33;;;;;;;4.17;1.60;;;24.20;71.80;;;;;;5053488;28;20435;-61
2023/10/09 13:39:19;;;;;;;6.90;1.73;;;24.20;70.30;;;;;;5053357;28;20940;-61
2023/10/09 13:41:48;;;;;;;2.20;1.00;;;24.40;64.10;;;;;;5052745;28;20843;-61
2023/10/09 13:44:15;;;;;;;1.60;1.33;;;24.40;69.40;;;;;;5053828;28;20375;-61
2023/10/09 13:46:41;;;;;;;2.90;1.33;;;24.50;70.50;;;;;;5053233;28;20949;-61
2023/10/09 13:49:14;;;;;;;4.53;1.53;;;24.30;60.20;;;;;;5053273;28;20413;-61
2023/10/09 13:51:45;;;;;;;5.10;1.07;;;24.20;59.20;;;;;;5053674;28;20520;-61
2023/10/09 13:56:59;;;;;;;2.40;1.40;;;24.30;72.60;;;;;;5053149;28;21012;-61
2023/10/09 13:59:25;;;;;;;4.37;1.60;;;24.00;68.60;;;;;;5053569;28;20421;-61
2023/10/09 14:01:54;;;;;;;5.50;1.73;;;23.90;68.00;;;;;;5053486;28;21050;-61
2023/10/09 14:04:21;;;;;;;3.50;1.43;;;23.80;70.80;;;;;;5053576;28;20391;-61
2023/10/09 14:06:56;;;;;;;4.37;1.07;;;23.80;71.90;;;;;;5052976;28;20505;-60
2023/10/09 14:09:37;;;;;;;3.17;0.90;;;23.90;70.00;;;;;;5053459;28;20833;-61
2023/10/09 14:12:11;;;;;;;2.50;1.20;;;23.80;72.10;;;;;;5053532;28;20473;-60
2023/10/09 14:14:46;;;;;;;0.90;0.90;;;23.80;70.30;;;;;;5053469;28;20885;-61
2023/10/09 14:17:13;;;;;;;3.20;1.30;;;23.70;69.70;;;;;;5052952;28;20391;-61
2023/10/09 14:19:41;;;;;;;1.30;1.10;;;23.70;69.70;;;;;;5053100;28;20408;-60
2023/10/09 14:22:07;;;;;;;2.47;1.60;;;23.60;73.50;;;;;;5052994;28;20456;-61
2023/10/09 14:24:34;;;;;;;3.37;2.03;;;23.60;72.50;;;;;;5053272;28;20498;-61
2023/10/09 14:27:10;;;;;;;4.60;1.53;;;23.60;71.20;;;;;;5052641;28;20243;-61
2023/10/09 14:29:37;;;;;;;2.73;1.70;;;23.60;72.60;;;;;;5053203;28;20412;-61
2023/10/09 14:32:03;;;;;;;1.73;1.60;;;23.50;70.00;;;;;;5052989;28;20437;-61
2023/10/09 14:34:32;;;;;;;6.30;1.33;;;23.50;71.60;;;;;;5052593;28;20426;-61
2023/10/09 14:37:00;;;;;;;2.70;1.13;;;23.40;72.70;;;;;;5052665;28;20444;-61
2023/10/09 14:39:27;;;;;;;2.10;1.90;;;23.40;71.70;;;;;;5052850;28;20408;-60
2023/10/09 14:41:57;;;;;;;4.37;1.03;;;23.30;72.50;;;;;;5052938;28;20431;-60
2023/10/09 14:44:24;;;;;;;6.03;2.17;;;23.30;71.30;;;;;;5052913;28;20440;-61
2023/10/09 14:46:50;;;;;;;7.97;3.33;;;23.40;71.70;;;;;;5051892;28;20403;-60
2023/10/09 14:49:21;;;;;;;3.90;1.90;;;23.30;71.30;;;;;;5052547;28;20850;-61
2023/10/09 14:51:47;;;;;;;2.40;1.37;;;23.30;71.80;;;;;;5052506;28;20487;-61
2023/10/09 14:54:17;;;;;;;5.17;1.87;;;23.30;71.70;;;;;;5052265;28;20409;-60
2023/10/09 14:56:45;;;;;;;3.30;1.00;;;23.30;71.90;;;;;;5052270;28;20427;-61
2023/10/09 14:59:11;;;;;;;5.70;1.83;;;23.20;68.40;;;;;;5052482;28;20440;-61
2023/10/09 15:01:37;;;;;;;1.90;1.23;;;23.00;70.70;;;;;;5052807;28;20413;-61
2023/10/09 15:04:03;;;;;;;4.83;1.77;;;22.90;68.00;;;;;;5052454;28;20758;-61
2023/10/09 15:06:30;;;;;;;6.77;1.60;;;22.80;69.00;;;;;;5085995;22;20228;-60
2023/10/09 15:08:58;;;;;;;4.73;1.70;;;22.70;71.00;;;;;;5092076;28;20990;-60
2023/10/09 15:11:25;;;;;;;3.67;2.30;;;22.70;71.20;;;;;;5092412;28;20567;-59
2023/10/09 15:13:52;;;;;;;5.60;1.23;;;22.70;70.00;;;;;;5092319;28;20399;-60
2023/10/09 15:16:21;;;;;;;2.40;1.50;;;22.60;70.80;;;;;;5091959;28;20422;-58
2023/10/09 15:18:52;;;;;;;3.33;0.90;;;22.50;69.50;;;;;;5092337;28;20403;-60
2023/10/09 15:21:18;;;;;;;2.00;1.10;;;22.40;69.90;;;;;;5092232;28;20499;-60
2023/10/09 15:23:44;;;;;;;3.60;1.80;;;22.30;69.30;;;;;;5092094;28;20498;-60
2023/10/09 15:26:10;;;;;;;3.13;1.20;;;22.30;69.70;;;;;;5091887;28;20859;-60
2023/10/09 15:28:35;;;;;;;2.60;1.10;;;22.30;70.20;;;;;;5091905;28;20226;-60
2023/10/09 15:31:01;;;;;;;2.77;1.67;;;22.20;70.40;;;;;;5091954;28;20592;-60
2023/10/09 15:33:30;;;;;;;7.23;1.53;;;22.20;71.30;;;;;;5091974;28;20511;-60
2023/10/09 15:35:56;;;;;;;3.50;1.17;;;22.00;73.00;;;;;;5091713;28;20222;-59
2023/10/09 15:38:23;;;;;;;2.90;1.63;;;21.90;72.50;;;;;;5091736;28;20437;-60
2023/10/09 15:40:49;;;;;;;6.77;1.70;;;21.80;70.90;;;;;;5091884;28;20196;-60
2023/10/09 15:43:16;;;;;;;1.53;1.10;;;21.80;70.80;;;;;;5091651;28;20492;-60
2023/10/09 15:45:49;;;;;;;8.20;2.20;;;21.70;72.40;;;;;;5091308;28;20197;-60
2023/10/09 15:48:15;;;;;;;1.67;1.30;;;21.60;73.70;;;;;;5091529;28;20409;-60
2023/10/09 15:50:48;;;;;;;4.90;1.80;;;21.60;73.20;;;;;;5091856;28;20485;-60
2023/10/09 15:53:18;;;;;;;7.23;1.87;;;21.50;72.40;;;;;;5091761;28;20600;-60
2023/10/09 15:55:51;;;;;;;2.70;1.30;;;21.50;72.50;;;;;;5091477;28;20466;-60
2023/10/09 15:58:16;;;;;;;4.30;2.17;;;21.40;72.30;;;;;;5091642;28;20447;-60